Aglaitsa — SW2071 — position and weather

sailwx.info

Track history (hours):
 
Tides and Currents Weather Stations Pressure Air Temp Water Temp Dewpoint Dewpoint Depression Visibility Wind Speed Wind Dir Waves Ship Positions

Aglaitsa

Last reported at 2017-Nov-02 19:32 UTC. Time now 2017-Nov-18 04:57 UTC.
Position N 40°11' E 024°24'.
Warning: this ship's position is 15 days out of date.

Length 22 m; draft 2.3 m.

Type: Fishing. MMSI: 239020000.

Date/timePositionNaut miles runAvg speedWind from/ knotsBaromVisibWave heightAir tempDewpointWater temp
2017-Nov-02 19:32N 40°11' E 024°24'0 9.9
2017-Nov-02 19:30N 40°11' E 024°24'510.0
2017-Nov-02 18:59N 40°16' E 024°21'28 0.5
2017-Oct-31 15:21N 40°42' E 024°10'10 7.9
2017-Oct-31 14:08N 40°49' E 024°20'1 8.0
2017-Oct-31 13:59N 40°50' E 024°21'2 0.1
2017-Oct-30 21:05N 40°51' E 024°19'1 6.6
2017-Oct-30 21:00N 40°50' E 024°20'5 9.7
2017-Oct-30 20:30N 40°50' E 024°26'5 9.6
2017-Oct-30 20:00N 40°49' E 024°32'5 9.5
2017-Oct-30 19:30N 40°48' E 024°39'5 9.6
2017-Oct-30 19:00N 40°47' E 024°44'4 8.2
2017-Oct-30 18:30N 40°45' E 024°49'0 0.4
2017-Oct-30 18:00N 40°45' E 024°49'0 0.4
2017-Oct-30 17:30N 40°45' E 024°49'0 0.4
2017-Oct-30 16:59N 40°45' E 024°49'0 0.1
2017-Oct-30 16:30N 40°45' E 024°49'0 0.3
2017-Oct-30 15:58N 40°45' E 024°49'4 8.8
2017-Oct-30 15:30N 40°47' E 024°44'510.5
2017-Oct-30 15:00N 40°49' E 024°38'1010.3
2017-Oct-30 14:00N 40°50' E 024°24'4 0.2
2017-Oct-29 17:39N 40°51' E 024°19'1 6.5
2017-Oct-29 17:30N 40°50' E 024°20'3 6.7
2017-Oct-29 17:00N 40°47' E 024°22'0 0.7
2017-Oct-29 16:30N 40°47' E 024°22'0 0.2
2017-Oct-29 16:00N 40°47' E 024°22'2 3.6
2017-Oct-29 15:30N 40°48' E 024°24'4 0.4
2017-Oct-29 05:52N 40°51' E 024°19'0 0.0
2017-Oct-29 05:26N 40°51' E 024°19'0 0.0
2017-Oct-29 05:00N 40°51' E 024°19'0 0.0
2017-Oct-29 04:16N 40°51' E 024°19'0 0.0
2017-Oct-29 04:00N 40°51' E 024°19'0 0.0
2017-Oct-28 19:00N 40°51' E 024°19'0 0.0
2017-Oct-28 18:30N 40°51' E 024°19'0 0.0
2017-Oct-28 17:58N 40°51' E 024°19'0 0.0
2017-Oct-28 17:28N 40°51' E 024°19'0 0.0
2017-Oct-28 17:00N 40°51' E 024°19'0 0.0
2017-Oct-28 16:30N 40°51' E 024°19'0 0.0
2017-Oct-28 15:59N 40°51' E 024°19'0 0.0
2017-Oct-28 15:30N 40°51' E 024°19'0 0.0
2017-Oct-28 15:00N 40°51' E 024°19'0 0.0
2017-Oct-28 14:30N 40°51' E 024°19'0 0.0
2017-Oct-28 13:56N 40°51' E 024°19'0 0.0
2017-Oct-28 13:30N 40°51' E 024°19'0 0.0
2017-Oct-28 13:00N 40°51' E 024°19'0 0.0
2017-Oct-28 12:29N 40°51' E 024°19'0 0.0
2017-Oct-28 11:59N 40°51' E 024°19'0 0.0
2017-Oct-28 11:19N 40°51' E 024°19'0 0.0
2017-Oct-28 10:50N 40°51' E 024°19'0 0.0
2017-Oct-28 10:23N 40°51' E 024°19'0 0.0
2017-Oct-28 10:00N 40°51' E 024°19'0 0.0
2017-Oct-28 09:30N 40°51' E 024°19'0 0.0
2017-Oct-28 08:59N 40°51' E 024°19'0 0.0
2017-Oct-28 08:29N 40°51' E 024°19'0 0.2
2017-Oct-28 08:00N 40°51' E 024°19'0 0.0
2017-Oct-28 07:30N 40°51' E 024°19'0 0.0
2017-Oct-28 07:00N 40°51' E 024°19'0 0.0
2017-Oct-28 06:30N 40°51' E 024°19'0 0.0
2017-Oct-28 06:00N 40°51' E 024°19'0 0.0
2017-Oct-28 05:30N 40°51' E 024°19'0 0.0
2017-Oct-28 05:00N 40°51' E 024°19'0 0.0
2017-Oct-28 04:30N 40°51' E 024°19'0 0.0
2017-Oct-28 04:00N 40°51' E 024°19'0 0.0
2017-Oct-28 03:30N 40°51' E 024°19'0 0.0
2017-Oct-28 03:00N 40°51' E 024°19'0 0.0
2017-Oct-28 02:30N 40°51' E 024°19'0 0.0
2017-Oct-28 02:00N 40°51' E 024°19'0 0.0
2017-Oct-28 01:30N 40°51' E 024°19'0 0.0
2017-Oct-28 01:00N 40°51' E 024°19'0 0.0
2017-Oct-28 00:30N 40°51' E 024°19'0 0.0
2017-Oct-28 00:00N 40°51' E 024°19'0 0.0
2017-Oct-27 23:30N 40°51' E 024°19'0 0.0
2017-Oct-27 23:00N 40°51' E 024°19'0 0.0
2017-Oct-27 22:30N 40°51' E 024°19'0 0.0
2017-Oct-27 22:00N 40°51' E 024°19'0 0.0
2017-Oct-27 21:30N 40°51' E 024°19'0 0.0
2017-Oct-27 21:00N 40°51' E 024°19'0 0.0
2017-Oct-27 20:30N 40°51' E 024°19'3 6.1
2017-Oct-27 20:00N 40°48' E 024°20'3 5.5
2017-Oct-27 19:30N 40°45' E 024°19'4 7.2
2017-Oct-27 19:01N 40°43' E 024°22'  
Track history (hours):
 
Tides and Currents Weather Stations Pressure Air Temp Water Temp Dewpoint Dewpoint Depression Visibility Wind Speed Wind Dir Waves Ship Positions

Aglaitsa

Last reported at 2017-Nov-02 19:32 UTC. Time now 2017-Nov-18 04:57 UTC.
Position N 40°11' E 024°24'.
Warning: this ship's position is 15 days out of date.

Length 22 m; draft 2.3 m.

Type: Fishing. MMSI: 239020000.

Date/timePositionNaut miles runAvg speedWind from/ knotsBaromVisibWave heightAir tempDewpointWater temp
2017-Nov-02 19:32N 40°11' E 024°24'0 9.9
2017-Nov-02 19:30N 40°11' E 024°24'510.0
2017-Nov-02 18:59N 40°16' E 024°21'28 0.5
2017-Oct-31 15:21N 40°42' E 024°10'10 7.9
2017-Oct-31 14:08N 40°49' E 024°20'1 8.0
2017-Oct-31 13:59N 40°50' E 024°21'2 0.1
2017-Oct-30 21:05N 40°51' E 024°19'1 6.6
2017-Oct-30 21:00N 40°50' E 024°20'5 9.7
2017-Oct-30 20:30N 40°50' E 024°26'5 9.6
2017-Oct-30 20:00N 40°49' E 024°32'5 9.5
2017-Oct-30 19:30N 40°48' E 024°39'5 9.6
2017-Oct-30 19:00N 40°47' E 024°44'4 8.2
2017-Oct-30 18:30N 40°45' E 024°49'0 0.4
2017-Oct-30 18:00N 40°45' E 024°49'0 0.4
2017-Oct-30 17:30N 40°45' E 024°49'0 0.4
2017-Oct-30 16:59N 40°45' E 024°49'0 0.1
2017-Oct-30 16:30N 40°45' E 024°49'0 0.3
2017-Oct-30 15:58N 40°45' E 024°49'4 8.8
2017-Oct-30 15:30N 40°47' E 024°44'510.5
2017-Oct-30 15:00N 40°49' E 024°38'1010.3
2017-Oct-30 14:00N 40°50' E 024°24'4 0.2
2017-Oct-29 17:39N 40°51' E 024°19'1 6.5
2017-Oct-29 17:30N 40°50' E 024°20'3 6.7
2017-Oct-29 17:00N 40°47' E 024°22'0 0.7
2017-Oct-29 16:30N 40°47' E 024°22'0 0.2
2017-Oct-29 16:00N 40°47' E 024°22'2 3.6
2017-Oct-29 15:30N 40°48' E 024°24'4 0.4
2017-Oct-29 05:52N 40°51' E 024°19'0 0.0
2017-Oct-29 05:26N 40°51' E 024°19'0 0.0
2017-Oct-29 05:00N 40°51' E 024°19'0 0.0
2017-Oct-29 04:16N 40°51' E 024°19'0 0.0
2017-Oct-29 04:00N 40°51' E 024°19'0 0.0
2017-Oct-28 19:00N 40°51' E 024°19'0 0.0
2017-Oct-28 18:30N 40°51' E 024°19'0 0.0
2017-Oct-28 17:58N 40°51' E 024°19'0 0.0
2017-Oct-28 17:28N 40°51' E 024°19'0 0.0
2017-Oct-28 17:00N 40°51' E 024°19'0 0.0
2017-Oct-28 16:30N 40°51' E 024°19'0 0.0
2017-Oct-28 15:59N 40°51' E 024°19'0 0.0
2017-Oct-28 15:30N 40°51' E 024°19'0 0.0
2017-Oct-28 15:00N 40°51' E 024°19'0 0.0
2017-Oct-28 14:30N 40°51' E 024°19'0 0.0
2017-Oct-28 13:56N 40°51' E 024°19'0 0.0
2017-Oct-28 13:30N 40°51' E 024°19'0 0.0
2017-Oct-28 13:00N 40°51' E 024°19'0 0.0
2017-Oct-28 12:29N 40°51' E 024°19'0 0.0
2017-Oct-28 11:59N 40°51' E 024°19'0 0.0
2017-Oct-28 11:19N 40°51' E 024°19'0 0.0
2017-Oct-28 10:50N 40°51' E 024°19'0 0.0
2017-Oct-28 10:23N 40°51' E 024°19'0 0.0
2017-Oct-28 10:00N 40°51' E 024°19'0 0.0
2017-Oct-28 09:30N 40°51' E 024°19'0 0.0
2017-Oct-28 08:59N 40°51' E 024°19'0 0.0
2017-Oct-28 08:29N 40°51' E 024°19'0 0.2
2017-Oct-28 08:00N 40°51' E 024°19'0 0.0
2017-Oct-28 07:30N 40°51' E 024°19'0 0.0
2017-Oct-28 07:00N 40°51' E 024°19'0 0.0
2017-Oct-28 06:30N 40°51' E 024°19'0 0.0
2017-Oct-28 06:00N 40°51' E 024°19'0 0.0
2017-Oct-28 05:30N 40°51' E 024°19'0 0.0
2017-Oct-28 05:00N 40°51' E 024°19'0 0.0
2017-Oct-28 04:30N 40°51' E 024°19'0 0.0
2017-Oct-28 04:00N 40°51' E 024°19'0 0.0
2017-Oct-28 03:30N 40°51' E 024°19'0 0.0
2017-Oct-28 03:00N 40°51' E 024°19'0 0.0
2017-Oct-28 02:30N 40°51' E 024°19'0 0.0
2017-Oct-28 02:00N 40°51' E 024°19'0 0.0
2017-Oct-28 01:30N 40°51' E 024°19'0 0.0
2017-Oct-28 01:00N 40°51' E 024°19'0 0.0
2017-Oct-28 00:30N 40°51' E 024°19'0 0.0
2017-Oct-28 00:00N 40°51' E 024°19'0 0.0
2017-Oct-27 23:30N 40°51' E 024°19'0 0.0
2017-Oct-27 23:00N 40°51' E 024°19'0 0.0
2017-Oct-27 22:30N 40°51' E 024°19'0 0.0
2017-Oct-27 22:00N 40°51' E 024°19'0 0.0
2017-Oct-27 21:30N 40°51' E 024°19'0 0.0
2017-Oct-27 21:00N 40°51' E 024°19'0 0.0
2017-Oct-27 20:30N 40°51' E 024°19'3 6.1
2017-Oct-27 20:00N 40°48' E 024°20'3 5.5
2017-Oct-27 19:30N 40°45' E 024°19'4 7.2
2017-Oct-27 19:01N 40°43' E 024°22'  

Dump ship's entire track history